sensor_id;sensor_type;location;lat;lon;timestamp;P1;durP1;ratioP1;P2;durP2;ratioP2
42096;SDS011;27754;45.414;11.084;2024-02-16T00:00:12;100.85;;;60.75;;
42096;SDS011;27754;45.414;11.084;2024-02-16T00:02:40;94.13;;;58.63;;
42096;SDS011;27754;45.414;11.084;2024-02-16T00:05:09;95.68;;;60.67;;
42096;SDS011;27754;45.414;11.084;2024-02-16T00:07:39;93.72;;;58.80;;
42096;SDS011;27754;45.414;11.084;2024-02-16T00:10:07;95.15;;;59.15;;
42096;SDS011;27754;45.414;11.084;2024-02-16T00:12:36;97.55;;;62.42;;
42096;SDS011;27754;45.414;11.084;2024-02-16T00:15:03;100.47;;;61.78;;
42096;SDS011;27754;45.414;11.084;2024-02-16T00:17:30;101.45;;;63.28;;
42096;SDS011;27754;45.414;11.084;2024-02-16T00:19:57;98.93;;;63.05;;
42096;SDS011;27754;45.414;11.084;2024-02-16T00:22:24;114.15;;;67.43;;
42096;SDS011;27754;45.414;11.084;2024-02-16T00:24:52;109.95;;;69.00;;
42096;SDS011;27754;45.414;11.084;2024-02-16T00:27:19;119.00;;;69.57;;
42096;SDS011;27754;45.414;11.084;2024-02-16T00:29:46;118.20;;;70.05;;
42096;SDS011;27754;45.414;11.084;2024-02-16T00:32:13;114.22;;;69.15;;
42096;SDS011;27754;45.414;11.084;2024-02-16T00:34:41;113.85;;;68.13;;
42096;SDS011;27754;45.414;11.084;2024-02-16T00:37:10;118.53;;;69.75;;
42096;SDS011;27754;45.414;11.084;2024-02-16T00:39:38;113.97;;;69.40;;
42096;SDS011;27754;45.414;11.084;2024-02-16T00:42:09;113.50;;;68.65;;
42096;SDS011;27754;45.414;11.084;2024-02-16T00:44:37;118.30;;;70.25;;
42096;SDS011;27754;45.414;11.084;2024-02-16T00:47:05;119.55;;;68.68;;
42096;SDS011;27754;45.414;11.084;2024-02-16T00:49:32;124.15;;;71.50;;
42096;SDS011;27754;45.414;11.084;2024-02-16T00:52:00;125.82;;;74.50;;
42096;SDS011;27754;45.414;11.084;2024-02-16T00:54:28;119.72;;;70.43;;
42096;SDS011;27754;45.414;11.084;2024-02-16T00:56:55;118.53;;;72.93;;
42096;SDS011;27754;45.414;11.084;2024-02-16T00:59:30;123.05;;;73.18;;
42096;SDS011;27754;45.414;11.084;2024-02-16T01:01:57;120.13;;;72.90;;
42096;SDS011;27754;45.414;11.084;2024-02-16T01:04:24;122.05;;;71.25;;
42096;SDS011;27754;45.414;11.084;2024-02-16T01:06:51;110.97;;;68.30;;
42096;SDS011;27754;45.414;11.084;2024-02-16T01:09:18;109.97;;;69.28;;
42096;SDS011;27754;45.414;11.084;2024-02-16T01:11:45;112.10;;;69.32;;
42096;SDS011;27754;45.414;11.084;2024-02-16T01:14:13;105.25;;;67.32;;
42096;SDS011;27754;45.414;11.084;2024-02-16T01:16:40;118.18;;;70.30;;
42096;SDS011;27754;45.414;11.084;2024-02-16T01:19:07;113.93;;;68.35;;
42096;SDS011;27754;45.414;11.084;2024-02-16T01:21:35;98.90;;;64.03;;
42096;SDS011;27754;45.414;11.084;2024-02-16T01:24:02;118.40;;;63.78;;
42096;SDS011;27754;45.414;11.084;2024-02-16T01:26:30;102.97;;;65.35;;
42096;SDS011;27754;45.414;11.084;2024-02-16T01:28:58;107.93;;;63.97;;
42096;SDS011;27754;45.414;11.084;2024-02-16T01:31:25;107.28;;;65.70;;
42096;SDS011;27754;45.414;11.084;2024-02-16T01:33:52;109.50;;;65.93;;
42096;SDS011;27754;45.414;11.084;2024-02-16T01:36:19;98.53;;;62.10;;
42096;SDS011;27754;45.414;11.084;2024-02-16T01:38:46;103.88;;;62.33;;
42096;SDS011;27754;45.414;11.084;2024-02-16T01:41:14;106.28;;;61.75;;
42096;SDS011;27754;45.414;11.084;2024-02-16T01:43:41;92.38;;;57.55;;
42096;SDS011;27754;45.414;11.084;2024-02-16T01:46:08;77.20;;;50.85;;
42096;SDS011;27754;45.414;11.084;2024-02-16T01:48:35;79.20;;;48.10;;
42096;SDS011;27754;45.414;11.084;2024-02-16T01:51:06;93.95;;;54.03;;
42096;SDS011;27754;45.414;11.084;2024-02-16T01:53:37;83.88;;;51.80;;
42096;SDS011;27754;45.414;11.084;2024-02-16T01:56:05;80.75;;;51.63;;
42096;SDS011;27754;45.414;11.084;2024-02-16T01:58:33;84.88;;;49.78;;
42096;SDS011;27754;45.414;11.084;2024-02-16T02:01:00;84.10;;;53.80;;
42096;SDS011;27754;45.414;11.084;2024-02-16T02:03:27;85.65;;;52.65;;
42096;SDS011;27754;45.414;11.084;2024-02-16T02:05:55;84.20;;;54.00;;
42096;SDS011;27754;45.414;11.084;2024-02-16T02:08:23;87.07;;;55.97;;
42096;SDS011;27754;45.414;11.084;2024-02-16T02:10:51;84.93;;;53.60;;
42096;SDS011;27754;45.414;11.084;2024-02-16T02:13:18;93.25;;;53.38;;
42096;SDS011;27754;45.414;11.084;2024-02-16T02:15:45;91.07;;;56.55;;
42096;SDS011;27754;45.414;11.084;2024-02-16T02:18:13;90.85;;;56.92;;
42096;SDS011;27754;45.414;11.084;2024-02-16T02:20:40;84.30;;;53.50;;
42096;SDS011;27754;45.414;11.084;2024-02-16T02:23:07;89.57;;;55.53;;
42096;SDS011;27754;45.414;11.084;2024-02-16T02:25:35;97.82;;;59.15;;
42096;SDS011;27754;45.414;11.084;2024-02-16T02:28:03;104.93;;;61.42;;
42096;SDS011;27754;45.414;11.084;2024-02-16T02:30:30;93.85;;;59.95;;
42096;SDS011;27754;45.414;11.084;2024-02-16T02:32:57;85.72;;;53.75;;
42096;SDS011;27754;45.414;11.084;2024-02-16T02:35:24;78.70;;;51.22;;
42096;SDS011;27754;45.414;11.084;2024-02-16T02:37:51;93.28;;;57.78;;
42096;SDS011;27754;45.414;11.084;2024-02-16T02:40:18;94.15;;;56.72;;
42096;SDS011;27754;45.414;11.084;2024-02-16T02:42:45;94.60;;;58.80;;
42096;SDS011;27754;45.414;11.084;2024-02-16T02:45:12;96.50;;;58.85;;
42096;SDS011;27754;45.414;11.084;2024-02-16T02:47:39;96.53;;;60.42;;
42096;SDS011;27754;45.414;11.084;2024-02-16T02:50:06;101.78;;;64.45;;
42096;SDS011;27754;45.414;11.084;2024-02-16T02:52:34;107.32;;;63.67;;
42096;SDS011;27754;45.414;11.084;2024-02-16T02:55:01;102.22;;;64.57;;
42096;SDS011;27754;45.414;11.084;2024-02-16T02:57:28;99.68;;;63.78;;
42096;SDS011;27754;45.414;11.084;2024-02-16T03:00:04;103.57;;;62.58;;
42096;SDS011;27754;45.414;11.084;2024-02-16T03:02:33;97.88;;;63.03;;
42096;SDS011;27754;45.414;11.084;2024-02-16T03:04:59;90.60;;;56.92;;
42096;SDS011;27754;45.414;11.084;2024-02-16T03:07:26;103.05;;;62.65;;
42096;SDS011;27754;45.414;11.084;2024-02-16T03:09:53;104.82;;;62.92;;
42096;SDS011;27754;45.414;11.084;2024-02-16T03:12:20;103.78;;;61.15;;
42096;SDS011;27754;45.414;11.084;2024-02-16T03:14:48;105.22;;;63.22;;
42096;SDS011;27754;45.414;11.084;2024-02-16T03:17:15;103.47;;;63.05;;
42096;SDS011;27754;45.414;11.084;2024-02-16T03:19:42;97.95;;;61.92;;
42096;SDS011;27754;45.414;11.084;2024-02-16T03:22:09;100.53;;;63.88;;
42096;SDS011;27754;45.414;11.084;2024-02-16T03:24:36;105.82;;;63.58;;
42096;SDS011;27754;45.414;11.084;2024-02-16T03:27:03;103.65;;;63.75;;
42096;SDS011;27754;45.414;11.084;2024-02-16T03:29:30;102.35;;;63.67;;
42096;SDS011;27754;45.414;11.084;2024-02-16T03:31:57;103.80;;;62.88;;
42096;SDS011;27754;45.414;11.084;2024-02-16T03:34:25;97.38;;;58.65;;
42096;SDS011;27754;45.414;11.084;2024-02-16T03:36:52;105.97;;;64.43;;
42096;SDS011;27754;45.414;11.084;2024-02-16T03:39:19;103.15;;;64.65;;
42096;SDS011;27754;45.414;11.084;2024-02-16T03:41:47;104.07;;;64.30;;
42096;SDS011;27754;45.414;11.084;2024-02-16T03:44:15;110.38;;;66.22;;
42096;SDS011;27754;45.414;11.084;2024-02-16T03:46:45;107.10;;;67.70;;
42096;SDS011;27754;45.414;11.084;2024-02-16T03:49:12;109.25;;;66.32;;
42096;SDS011;27754;45.414;11.084;2024-02-16T03:51:39;99.63;;;63.40;;
42096;SDS011;27754;45.414;11.084;2024-02-16T03:54:06;105.40;;;66.07;;
42096;SDS011;27754;45.414;11.084;2024-02-16T03:56:33;106.68;;;66.68;;
42096;SDS011;27754;45.414;11.084;2024-02-16T03:59:00;101.07;;;64.03;;
42096;SDS011;27754;45.414;11.084;2024-02-16T04:01:27;109.63;;;65.80;;
42096;SDS011;27754;45.414;11.084;2024-02-16T04:03:55;109.90;;;64.72;;
42096;SDS011;27754;45.414;11.084;2024-02-16T04:06:22;103.57;;;64.15;;
42096;SDS011;27754;45.414;11.084;2024-02-16T04:08:49;102.53;;;63.72;;
42096;SDS011;27754;45.414;11.084;2024-02-16T04:11:16;103.53;;;62.03;;
42096;SDS011;27754;45.414;11.084;2024-02-16T04:13:43;99.93;;;62.95;;
42096;SDS011;27754;45.414;11.084;2024-02-16T04:16:10;95.93;;;61.83;;
42096;SDS011;27754;45.414;11.084;2024-02-16T04:18:37;106.35;;;65.97;;
42096;SDS011;27754;45.414;11.084;2024-02-16T04:21:04;105.43;;;64.63;;
42096;SDS011;27754;45.414;11.084;2024-02-16T04:23:32;102.00;;;62.58;;
42096;SDS011;27754;45.414;11.084;2024-02-16T04:25:59;103.35;;;63.78;;
42096;SDS011;27754;45.414;11.084;2024-02-16T04:28:26;108.18;;;65.13;;
42096;SDS011;27754;45.414;11.084;2024-02-16T04:30:53;105.10;;;66.57;;
42096;SDS011;27754;45.414;11.084;2024-02-16T04:33:19;115.63;;;70.75;;
42096;SDS011;27754;45.414;11.084;2024-02-16T04:35:47;113.25;;;70.13;;
42096;SDS011;27754;45.414;11.084;2024-02-16T04:38:14;116.93;;;70.65;;
42096;SDS011;27754;45.414;11.084;2024-02-16T04:40:41;120.53;;;71.63;;
42096;SDS011;27754;45.414;11.084;2024-02-16T04:43:08;109.97;;;67.95;;
42096;SDS011;27754;45.414;11.084;2024-02-16T04:45:35;111.28;;;65.65;;
42096;SDS011;27754;45.414;11.084;2024-02-16T04:48:06;109.72;;;66.75;;
42096;SDS011;27754;45.414;11.084;2024-02-16T04:50:34;118.05;;;68.68;;
42096;SDS011;27754;45.414;11.084;2024-02-16T04:53:01;119.93;;;72.45;;
42096;SDS011;27754;45.414;11.084;2024-02-16T04:55:29;122.75;;;71.50;;
42096;SDS011;27754;45.414;11.084;2024-02-16T04:57:57;119.32;;;72.57;;
42096;SDS011;27754;45.414;11.084;2024-02-16T05:00:25;124.85;;;75.72;;
42096;SDS011;27754;45.414;11.084;2024-02-16T05:02:52;121.13;;;73.97;;
42096;SDS011;27754;45.414;11.084;2024-02-16T05:05:19;131.55;;;74.35;;
42096;SDS011;27754;45.414;11.084;2024-02-16T05:07:48;129.55;;;77.32;;
42096;SDS011;27754;45.414;11.084;2024-02-16T05:10:16;119.90;;;74.05;;
42096;SDS011;27754;45.414;11.084;2024-02-16T05:12:43;118.00;;;71.53;;
42096;SDS011;27754;45.414;11.084;2024-02-16T05:15:10;113.25;;;68.65;;
42096;SDS011;27754;45.414;11.084;2024-02-16T05:17:40;96.03;;;57.65;;
42096;SDS011;27754;45.414;11.084;2024-02-16T05:20:08;78.28;;;50.53;;
42096;SDS011;27754;45.414;11.084;2024-02-16T05:22:41;82.43;;;50.45;;
42096;SDS011;27754;45.414;11.084;2024-02-16T05:25:09;83.68;;;50.08;;
42096;SDS011;27754;45.414;11.084;2024-02-16T05:27:39;80.95;;;52.25;;
42096;SDS011;27754;45.414;11.084;2024-02-16T05:30:06;86.85;;;55.38;;
42096;SDS011;27754;45.414;11.084;2024-02-16T05:32:36;79.07;;;52.47;;
42096;SDS011;27754;45.414;11.084;2024-02-16T05:35:04;81.10;;;51.78;;
42096;SDS011;27754;45.414;11.084;2024-02-16T05:37:38;76.43;;;51.15;;
42096;SDS011;27754;45.414;11.084;2024-02-16T05:40:07;74.82;;;49.38;;
42096;SDS011;27754;45.414;11.084;2024-02-16T05:42:48;74.68;;;46.90;;
42096;SDS011;27754;45.414;11.084;2024-02-16T05:45:15;69.60;;;47.28;;
42096;SDS011;27754;45.414;11.084;2024-02-16T05:47:43;66.80;;;44.40;;
42096;SDS011;27754;45.414;11.084;2024-02-16T05:50:12;68.85;;;44.95;;
42096;SDS011;27754;45.414;11.084;2024-02-16T05:52:40;79.90;;;46.28;;
42096;SDS011;27754;45.414;11.084;2024-02-16T05:55:10;66.57;;;45.80;;
42096;SDS011;27754;45.414;11.084;2024-02-16T05:57:38;60.88;;;43.78;;
42096;SDS011;27754;45.414;11.084;2024-02-16T06:00:06;66.35;;;43.38;;
42096;SDS011;27754;45.414;11.084;2024-02-16T06:02:35;59.95;;;41.03;;
42096;SDS011;27754;45.414;11.084;2024-02-16T06:05:02;65.38;;;44.58;;
42096;SDS011;27754;45.414;11.084;2024-02-16T06:07:30;63.70;;;44.60;;
42096;SDS011;27754;45.414;11.084;2024-02-16T06:09:57;64.05;;;43.13;;
42096;SDS011;27754;45.414;11.084;2024-02-16T06:12:24;68.50;;;45.50;;
42096;SDS011;27754;45.414;11.084;2024-02-16T06:14:51;73.13;;;43.88;;
42096;SDS011;27754;45.414;11.084;2024-02-16T06:17:20;66.80;;;44.92;;
42096;SDS011;27754;45.414;11.084;2024-02-16T06:19:47;66.55;;;45.53;;
42096;SDS011;27754;45.414;11.084;2024-02-16T06:22:14;66.40;;;43.95;;
42096;SDS011;27754;45.414;11.084;2024-02-16T06:24:41;75.90;;;47.63;;
42096;SDS011;27754;45.414;11.084;2024-02-16T06:27:09;72.40;;;46.47;;
42096;SDS011;27754;45.414;11.084;2024-02-16T06:29:36;83.03;;;48.78;;
42096;SDS011;27754;45.414;11.084;2024-02-16T06:32:03;76.80;;;48.60;;
42096;SDS011;27754;45.414;11.084;2024-02-16T06:34:30;70.25;;;45.92;;
42096;SDS011;27754;45.414;11.084;2024-02-16T06:36:58;71.07;;;46.70;;
42096;SDS011;27754;45.414;11.084;2024-02-16T06:39:25;74.57;;;47.67;;
42096;SDS011;27754;45.414;11.084;2024-02-16T06:41:52;74.63;;;48.20;;
42096;SDS011;27754;45.414;11.084;2024-02-16T06:44:19;80.20;;;49.72;;
42096;SDS011;27754;45.414;11.084;2024-02-16T06:46:50;76.25;;;48.20;;
42096;SDS011;27754;45.414;11.084;2024-02-16T06:49:17;89.57;;;52.65;;
42096;SDS011;27754;45.414;11.084;2024-02-16T06:51:44;82.88;;;50.58;;
42096;SDS011;27754;45.414;11.084;2024-02-16T06:54:11;70.32;;;47.60;;
42096;SDS011;27754;45.414;11.084;2024-02-16T06:56:39;74.60;;;48.63;;
42096;SDS011;27754;45.414;11.084;2024-02-16T06:59:05;68.32;;;45.45;;
42096;SDS011;27754;45.414;11.084;2024-02-16T07:01:33;78.32;;;46.80;;
42096;SDS011;27754;45.414;11.084;2024-02-16T07:04:00;66.47;;;44.40;;
42096;SDS011;27754;45.414;11.084;2024-02-16T07:06:28;67.95;;;44.42;;
42096;SDS011;27754;45.414;11.084;2024-02-16T07:08:55;63.28;;;43.63;;
42096;SDS011;27754;45.414;11.084;2024-02-16T07:11:23;76.70;;;42.38;;
42096;SDS011;27754;45.414;11.084;2024-02-16T07:13:50;76.03;;;43.90;;
42096;SDS011;27754;45.414;11.084;2024-02-16T07:16:17;77.20;;;45.00;;
42096;SDS011;27754;45.414;11.084;2024-02-16T07:18:45;80.10;;;44.78;;
42096;SDS011;27754;45.414;11.084;2024-02-16T07:21:12;72.07;;;45.33;;
42096;SDS011;27754;45.414;11.084;2024-02-16T07:23:39;73.88;;;46.33;;
42096;SDS011;27754;45.414;11.084;2024-02-16T07:26:06;73.78;;;45.10;;
42096;SDS011;27754;45.414;11.084;2024-02-16T07:28:34;80.43;;;47.13;;
42096;SDS011;27754;45.414;11.084;2024-02-16T07:31:01;84.15;;;45.67;;
42096;SDS011;27754;45.414;11.084;2024-02-16T07:33:29;82.80;;;46.53;;
42096;SDS011;27754;45.414;11.084;2024-02-16T07:35:57;69.82;;;44.10;;
42096;SDS011;27754;45.414;11.084;2024-02-16T07:38:24;70.78;;;45.17;;
42096;SDS011;27754;45.414;11.084;2024-02-16T07:40:51;70.47;;;42.42;;
42096;SDS011;27754;45.414;11.084;2024-02-16T07:43:18;64.18;;;44.13;;
42096;SDS011;27754;45.414;11.084;2024-02-16T07:45:45;67.68;;;44.33;;
42096;SDS011;27754;45.414;11.084;2024-02-16T07:48:13;73.00;;;42.15;;
42096;SDS011;27754;45.414;11.084;2024-02-16T07:50:40;69.68;;;42.25;;
42096;SDS011;27754;45.414;11.084;2024-02-16T07:53:08;59.88;;;41.00;;
42096;SDS011;27754;45.414;11.084;2024-02-16T07:55:37;61.38;;;41.83;;
42096;SDS011;27754;45.414;11.084;2024-02-16T07:58:04;63.53;;;40.47;;
42096;SDS011;27754;45.414;11.084;2024-02-16T08:00:31;62.30;;;38.65;;
42096;SDS011;27754;45.414;11.084;2024-02-16T08:02:59;60.67;;;38.95;;
42096;SDS011;27754;45.414;11.084;2024-02-16T08:05:26;56.75;;;39.47;;
42096;SDS011;27754;45.414;11.084;2024-02-16T08:07:53;62.72;;;42.00;;
42096;SDS011;27754;45.414;11.084;2024-02-16T08:10:22;68.20;;;43.75;;
42096;SDS011;27754;45.414;11.084;2024-02-16T08:12:51;62.20;;;42.53;;
42096;SDS011;27754;45.414;11.084;2024-02-16T08:15:19;73.10;;;44.53;;
42096;SDS011;27754;45.414;11.084;2024-02-16T08:17:50;72.97;;;45.17;;
42096;SDS011;27754;45.414;11.084;2024-02-16T08:20:18;68.82;;;45.70;;
42096;SDS011;27754;45.414;11.084;2024-02-16T08:22:47;67.97;;;44.10;;
42096;SDS011;27754;45.414;11.084;2024-02-16T08:25:14;64.78;;;43.78;;
42096;SDS011;27754;45.414;11.084;2024-02-16T08:27:41;64.38;;;45.15;;
42096;SDS011;27754;45.414;11.084;2024-02-16T08:30:09;63.88;;;42.08;;
42096;SDS011;27754;45.414;11.084;2024-02-16T08:32:39;68.13;;;44.60;;
42096;SDS011;27754;45.414;11.084;2024-02-16T08:35:06;66.07;;;42.58;;
42096;SDS011;27754;45.414;11.084;2024-02-16T08:37:33;66.60;;;42.75;;
42096;SDS011;27754;45.414;11.084;2024-02-16T08:40:01;71.68;;;42.35;;
42096;SDS011;27754;45.414;11.084;2024-02-16T08:42:30;70.60;;;43.03;;
42096;SDS011;27754;45.414;11.084;2024-02-16T08:44:58;63.78;;;41.72;;
42096;SDS011;27754;45.414;11.084;2024-02-16T08:47:27;58.17;;;40.78;;
42096;SDS011;27754;45.414;11.084;2024-02-16T08:49:54;56.33;;;41.60;;
42096;SDS011;27754;45.414;11.084;2024-02-16T08:52:21;62.50;;;42.70;;
42096;SDS011;27754;45.414;11.084;2024-02-16T08:54:48;62.72;;;40.72;;
42096;SDS011;27754;45.414;11.084;2024-02-16T08:57:15;60.58;;;41.30;;
42096;SDS011;27754;45.414;11.084;2024-02-16T08:59:42;55.42;;;40.60;;
42096;SDS011;27754;45.414;11.084;2024-02-16T09:02:10;58.90;;;41.47;;
42096;SDS011;27754;45.414;11.084;2024-02-16T09:04:37;67.43;;;44.63;;
42096;SDS011;27754;45.414;11.084;2024-02-16T09:07:04;68.32;;;45.08;;
42096;SDS011;27754;45.414;11.084;2024-02-16T09:09:31;59.72;;;42.20;;
42096;SDS011;27754;45.414;11.084;2024-02-16T09:12:02;61.75;;;44.33;;
42096;SDS011;27754;45.414;11.084;2024-02-16T09:14:29;69.40;;;46.78;;
42096;SDS011;27754;45.414;11.084;2024-02-16T09:16:56;67.80;;;44.33;;
42096;SDS011;27754;45.414;11.084;2024-02-16T09:19:23;62.00;;;45.72;;
42096;SDS011;27754;45.414;11.084;2024-02-16T09:21:51;66.78;;;46.45;;
42096;SDS011;27754;45.414;11.084;2024-02-16T09:24:23;71.72;;;47.70;;
42096;SDS011;27754;45.414;11.084;2024-02-16T09:26:58;71.60;;;49.17;;
42096;SDS011;27754;45.414;11.084;2024-02-16T09:29:30;68.15;;;49.10;;
42096;SDS011;27754;45.414;11.084;2024-02-16T09:31:57;74.57;;;49.72;;
42096;SDS011;27754;45.414;11.084;2024-02-16T09:34:25;71.40;;;50.65;;
42096;SDS011;27754;45.414;11.084;2024-02-16T09:36:53;72.82;;;49.95;;
42096;SDS011;27754;45.414;11.084;2024-02-16T09:39:20;73.78;;;51.25;;
42096;SDS011;27754;45.414;11.084;2024-02-16T09:41:49;75.07;;;52.85;;
42096;SDS011;27754;45.414;11.084;2024-02-16T09:44:17;74.85;;;51.17;;
42096;SDS011;27754;45.414;11.084;2024-02-16T09:46:46;70.90;;;49.53;;
42096;SDS011;27754;45.414;11.084;2024-02-16T09:49:15;78.47;;;51.92;;
42096;SDS011;27754;45.414;11.084;2024-02-16T09:54:19;79.63;;;51.90;;
42096;SDS011;27754;45.414;11.084;2024-02-16T09:56:46;77.00;;;52.60;;
42096;SDS011;27754;45.414;11.084;2024-02-16T09:59:13;79.45;;;52.28;;
42096;SDS011;27754;45.414;11.084;2024-02-16T10:01:40;81.05;;;53.55;;
42096;SDS011;27754;45.414;11.084;2024-02-16T10:04:08;78.88;;;53.17;;
42096;SDS011;27754;45.414;11.084;2024-02-16T10:06:47;82.07;;;52.92;;
42096;SDS011;27754;45.414;11.084;2024-02-16T10:09:24;84.30;;;53.53;;
42096;SDS011;27754;45.414;11.084;2024-02-16T10:11:53;80.07;;;54.47;;
42096;SDS011;27754;45.414;11.084;2024-02-16T10:14:20;83.88;;;54.70;;
42096;SDS011;27754;45.414;11.084;2024-02-16T10:16:47;87.55;;;56.00;;
42096;SDS011;27754;45.414;11.084;2024-02-16T10:19:17;78.40;;;52.83;;
42096;SDS011;27754;45.414;11.084;2024-02-16T10:21:44;87.68;;;56.45;;
42096;SDS011;27754;45.414;11.084;2024-02-16T10:24:11;99.30;;;60.30;;
42096;SDS011;27754;45.414;11.084;2024-02-16T10:26:41;92.38;;;61.03;;
42096;SDS011;27754;45.414;11.084;2024-02-16T10:29:09;93.35;;;62.05;;
42096;SDS011;27754;45.414;11.084;2024-02-16T10:31:37;99.13;;;63.08;;
42096;SDS011;27754;45.414;11.084;2024-02-16T10:34:04;94.88;;;63.47;;
42096;SDS011;27754;45.414;11.084;2024-02-16T10:36:34;100.93;;;64.18;;
42096;SDS011;27754;45.414;11.084;2024-02-16T10:39:03;102.28;;;63.33;;
42096;SDS011;27754;45.414;11.084;2024-02-16T10:41:35;100.32;;;66.43;;
42096;SDS011;27754;45.414;11.084;2024-02-16T10:44:07;100.33;;;69.00;;
42096;SDS011;27754;45.414;11.084;2024-02-16T10:46:34;98.80;;;66.95;;
42096;SDS011;27754;45.414;11.084;2024-02-16T10:49:02;98.68;;;65.72;;
42096;SDS011;27754;45.414;11.084;2024-02-16T10:51:45;95.35;;;64.32;;
42096;SDS011;27754;45.414;11.084;2024-02-16T10:54:16;108.60;;;69.78;;
42096;SDS011;27754;45.414;11.084;2024-02-16T10:56:46;100.57;;;66.53;;
42096;SDS011;27754;45.414;11.084;2024-02-16T10:59:16;103.97;;;69.57;;
42096;SDS011;27754;45.414;11.084;2024-02-16T11:01:43;107.15;;;70.03;;
42096;SDS011;27754;45.414;11.084;2024-02-16T11:04:12;113.28;;;72.20;;
42096;SDS011;27754;45.414;11.084;2024-02-16T11:11:55;113.53;;;74.63;;
42096;SDS011;27754;45.414;11.084;2024-02-16T11:14:33;105.45;;;70.72;;
42096;SDS011;27754;45.414;11.084;2024-02-16T11:17:12;107.53;;;72.25;;
42096;SDS011;27754;45.414;11.084;2024-02-16T11:19:40;111.97;;;74.10;;
42096;SDS011;27754;45.414;11.084;2024-02-16T11:22:08;104.07;;;71.35;;
42096;SDS011;27754;45.414;11.084;2024-02-16T11:24:42;100.20;;;68.63;;
42096;SDS011;27754;45.414;11.084;2024-02-16T11:27:11;106.32;;;69.45;;
42096;SDS011;27754;45.414;11.084;2024-02-16T11:29:39;107.90;;;70.20;;
42096;SDS011;27754;45.414;11.084;2024-02-16T11:32:07;106.97;;;70.70;;
42096;SDS011;27754;45.414;11.084;2024-02-16T11:34:34;105.10;;;70.10;;
42096;SDS011;27754;45.414;11.084;2024-02-16T11:37:04;111.03;;;72.72;;
42096;SDS011;27754;45.414;11.084;2024-02-16T11:39:32;106.93;;;70.55;;
42096;SDS011;27754;45.414;11.084;2024-02-16T11:42:05;110.40;;;72.20;;
42096;SDS011;27754;45.414;11.084;2024-02-16T11:44:37;101.05;;;66.57;;
42096;SDS011;27754;45.414;11.084;2024-02-16T11:47:09;98.85;;;66.03;;
42096;SDS011;27754;45.414;11.084;2024-02-16T11:49:41;95.82;;;65.10;;
42096;SDS011;27754;45.414;11.084;2024-02-16T11:52:08;100.47;;;64.18;;
42096;SDS011;27754;45.414;11.084;2024-02-16T11:54:36;97.25;;;63.40;;
42096;SDS011;27754;45.414;11.084;2024-02-16T11:57:04;90.53;;;60.33;;
42096;SDS011;27754;45.414;11.084;2024-02-16T11:59:31;89.68;;;58.00;;
42096;SDS011;27754;45.414;11.084;2024-02-16T12:01:58;88.80;;;58.88;;
42096;SDS011;27754;45.414;11.084;2024-02-16T12:04:29;94.05;;;61.17;;
42096;SDS011;27754;45.414;11.084;2024-02-16T12:06:57;95.70;;;63.83;;
42096;SDS011;27754;45.414;11.084;2024-02-16T12:09:30;90.43;;;62.05;;
42096;SDS011;27754;45.414;11.084;2024-02-16T12:12:02;92.00;;;60.78;;
42096;SDS011;27754;45.414;11.084;2024-02-16T12:14:29;94.25;;;62.85;;
42096;SDS011;27754;45.414;11.084;2024-02-16T12:16:57;93.70;;;60.75;;
42096;SDS011;27754;45.414;11.084;2024-02-16T12:19:25;86.10;;;58.00;;
42096;SDS011;27754;45.414;11.084;2024-02-16T12:21:52;84.85;;;55.67;;
42096;SDS011;27754;45.414;11.084;2024-02-16T12:24:21;82.38;;;56.58;;
42096;SDS011;27754;45.414;11.084;2024-02-16T12:26:48;84.90;;;56.17;;
42096;SDS011;27754;45.414;11.084;2024-02-16T12:29:16;83.35;;;56.13;;
42096;SDS011;27754;45.414;11.084;2024-02-16T12:31:44;77.95;;;54.22;;
42096;SDS011;27754;45.414;11.084;2024-02-16T12:34:12;85.03;;;55.72;;
42096;SDS011;27754;45.414;11.084;2024-02-16T12:36:40;84.30;;;56.92;;
42096;SDS011;27754;45.414;11.084;2024-02-16T12:39:13;82.32;;;55.22;;
42096;SDS011;27754;45.414;11.084;2024-02-16T12:41:42;82.03;;;55.10;;
42096;SDS011;27754;45.414;11.084;2024-02-16T12:44:10;81.32;;;55.35;;
42096;SDS011;27754;45.414;11.084;2024-02-16T12:46:37;86.30;;;55.22;;
42096;SDS011;27754;45.414;11.084;2024-02-16T12:49:05;80.78;;;54.80;;
42096;SDS011;27754;45.414;11.084;2024-02-16T12:51:33;82.75;;;53.63;;
42096;SDS011;27754;45.414;11.084;2024-02-16T12:54:01;86.20;;;55.72;;
42096;SDS011;27754;45.414;11.084;2024-02-16T12:56:31;84.28;;;57.20;;
42096;SDS011;27754;45.414;11.084;2024-02-16T12:58:58;79.07;;;54.10;;
42096;SDS011;27754;45.414;11.084;2024-02-16T13:01:27;83.85;;;55.03;;
42096;SDS011;27754;45.414;11.084;2024-02-16T13:03:55;83.63;;;54.53;;
42096;SDS011;27754;45.414;11.084;2024-02-16T13:06:22;80.18;;;52.15;;
42096;SDS011;27754;45.414;11.084;2024-02-16T13:08:54;81.13;;;54.22;;
42096;SDS011;27754;45.414;11.084;2024-02-16T13:11:22;83.30;;;53.80;;
42096;SDS011;27754;45.414;11.084;2024-02-16T13:13:49;84.95;;;56.75;;
42096;SDS011;27754;45.414;11.084;2024-02-16T13:16:17;78.95;;;54.25;;
42096;SDS011;27754;45.414;11.084;2024-02-16T13:18:44;82.25;;;54.08;;
42096;SDS011;27754;45.414;11.084;2024-02-16T13:21:11;82.30;;;54.13;;
42096;SDS011;27754;45.414;11.084;2024-02-16T13:23:39;79.45;;;53.42;;
42096;SDS011;27754;45.414;11.084;2024-02-16T13:26:05;80.15;;;53.65;;
42096;SDS011;27754;45.414;11.084;2024-02-16T13:28:33;84.38;;;54.63;;
42096;SDS011;27754;45.414;11.084;2024-02-16T13:31:00;83.65;;;55.58;;
42096;SDS011;27754;45.414;11.084;2024-02-16T13:33:27;75.97;;;52.20;;
42096;SDS011;27754;45.414;11.084;2024-02-16T13:35:54;80.40;;;54.92;;
42096;SDS011;27754;45.414;11.084;2024-02-16T13:38:22;79.57;;;53.85;;
42096;SDS011;27754;45.414;11.084;2024-02-16T13:40:49;83.68;;;53.17;;
42096;SDS011;27754;45.414;11.084;2024-02-16T13:43:16;81.10;;;54.47;;
42096;SDS011;27754;45.414;11.084;2024-02-16T13:45:51;82.22;;;55.05;;
42096;SDS011;27754;45.414;11.084;2024-02-16T13:48:19;80.43;;;53.58;;
42096;SDS011;27754;45.414;11.084;2024-02-16T13:50:47;79.75;;;53.35;;
42096;SDS011;27754;45.414;11.084;2024-02-16T13:53:15;78.18;;;52.03;;
42096;SDS011;27754;45.414;11.084;2024-02-16T13:55:47;77.40;;;51.90;;
42096;SDS011;27754;45.414;11.084;2024-02-16T13:58:14;76.22;;;52.63;;
42096;SDS011;27754;45.414;11.084;2024-02-16T14:00:41;77.95;;;53.05;;
42096;SDS011;27754;45.414;11.084;2024-02-16T14:03:09;84.47;;;54.05;;
42096;SDS011;27754;45.414;11.084;2024-02-16T14:05:37;77.30;;;52.95;;
42096;SDS011;27754;45.414;11.084;2024-02-16T14:08:05;82.20;;;52.40;;
42096;SDS011;27754;45.414;11.084;2024-02-16T14:10:35;75.90;;;51.72;;
42096;SDS011;27754;45.414;11.084;2024-02-16T14:13:02;78.65;;;51.20;;
42096;SDS011;27754;45.414;11.084;2024-02-16T14:15:30;81.07;;;53.33;;
42096;SDS011;27754;45.414;11.084;2024-02-16T14:17:59;74.68;;;51.85;;